sensor_id;sensor_type;location;lat;lon;timestamp;pressure;altitude;pressure_sealevel;temperature
66113;BMP280;52893;52.870;5.822;2022-12-16T00:01:07;100959.13;;;2.45
66113;BMP280;52893;52.870;5.822;2022-12-16T00:03:35;100957.25;;;2.45
66113;BMP280;52893;52.870;5.822;2022-12-16T00:06:02;100947.75;;;2.38
66113;BMP280;52893;52.870;5.822;2022-12-16T00:08:33;100961.28;;;2.48
66113;BMP280;52893;52.870;5.822;2022-12-16T00:11:01;100958.06;;;2.51
66113;BMP280;52893;52.870;5.822;2022-12-16T00:13:30;100971.28;;;2.52
66113;BMP280;52893;52.870;5.822;2022-12-16T00:15:58;100968.84;;;2.56
66113;BMP280;52893;52.870;5.822;2022-12-16T00:18:25;100970.22;;;2.58
66113;BMP280;52893;52.870;5.822;2022-12-16T00:20:54;100963.47;;;2.51
66113;BMP280;52893;52.870;5.822;2022-12-16T00:23:21;100970.47;;;2.57
66113;BMP280;52893;52.870;5.822;2022-12-16T00:25:51;100975.31;;;2.55
66113;BMP280;52893;52.870;5.822;2022-12-16T00:28:18;100972.91;;;2.58
66113;BMP280;52893;52.870;5.822;2022-12-16T00:30:48;100886.47;;;2.03
66113;BMP280;52893;52.870;5.822;2022-12-16T00:33:16;100969.66;;;2.56
66113;BMP280;52893;52.870;5.822;2022-12-16T00:35:44;100971.56;;;2.56
66113;BMP280;52893;52.870;5.822;2022-12-16T00:38:11;100948.56;;;2.38
66113;BMP280;52893;52.870;5.822;2022-12-16T00:40:39;100976.13;;;2.55
66113;BMP280;52893;52.870;5.822;2022-12-16T00:43:08;100984.50;;;2.54
66113;BMP280;52893;52.870;5.822;2022-12-16T00:45:35;100979.38;;;2.52
66113;BMP280;52893;52.870;5.822;2022-12-16T00:48:04;100982.56;;;2.49
66113;BMP280;52893;52.870;5.822;2022-12-16T00:50:32;100984.19;;;2.45
66113;BMP280;52893;52.870;5.822;2022-12-16T00:53:00;100980.38;;;2.41
66113;BMP280;52893;52.870;5.822;2022-12-16T00:55:27;100988.97;;;2.38
66113;BMP280;52893;52.870;5.822;2022-12-16T00:57:55;101001.34;;;2.34
66113;BMP280;52893;52.870;5.822;2022-12-16T01:00:24;100996.72;;;2.29
66113;BMP280;52893;52.870;5.822;2022-12-16T01:02:51;101002.13;;;2.24
66113;BMP280;52893;52.870;5.822;2022-12-16T01:05:21;101001.00;;;2.20
66113;BMP280;52893;52.870;5.822;2022-12-16T01:07:52;101001.78;;;2.16
66113;BMP280;52893;52.870;5.822;2022-12-16T01:10:20;101001.47;;;2.12
66113;BMP280;52893;52.870;5.822;2022-12-16T01:12:47;100995.78;;;2.09
66113;BMP280;52893;52.870;5.822;2022-12-16T01:15:15;100988.16;;;1.96
66113;BMP280;52893;52.870;5.822;2022-12-16T01:17:45;101001.06;;;1.94
66113;BMP280;52893;52.870;5.822;2022-12-16T01:20:12;101011.34;;;1.97
66113;BMP280;52893;52.870;5.822;2022-12-16T01:22:40;101013.97;;;1.91
66113;BMP280;52893;52.870;5.822;2022-12-16T01:25:08;100951.97;;;1.44
66113;BMP280;52893;52.870;5.822;2022-12-16T01:27:37;101013.34;;;1.79
66113;BMP280;52893;52.870;5.822;2022-12-16T01:30:06;101034.38;;;1.82
66113;BMP280;52893;52.870;5.822;2022-12-16T01:32:34;101035.97;;;1.78
66113;BMP280;52893;52.870;5.822;2022-12-16T01:35:04;101042.66;;;1.76
66113;BMP280;52893;52.870;5.822;2022-12-16T01:37:32;100988.78;;;1.39
66113;BMP280;52893;52.870;5.822;2022-12-16T01:39:59;101049.59;;;1.72
66113;BMP280;52893;52.870;5.822;2022-12-16T01:42:26;101055.25;;;1.70
66113;BMP280;52893;52.870;5.822;2022-12-16T01:44:56;101061.72;;;1.69
66113;BMP280;52893;52.870;5.822;2022-12-16T01:47:45;101064.91;;;1.66
66113;BMP280;52893;52.870;5.822;2022-12-16T01:50:15;101064.59;;;1.63
66113;BMP280;52893;52.870;5.822;2022-12-16T01:52:47;101064.00;;;1.61
66113;BMP280;52893;52.870;5.822;2022-12-16T01:55:19;101063.47;;;1.59
66113;BMP280;52893;52.870;5.822;2022-12-16T01:57:52;101072.03;;;1.56
66113;BMP280;52893;52.870;5.822;2022-12-16T02:00:20;101086.00;;;1.52
66113;BMP280;52893;52.870;5.822;2022-12-16T02:02:50;101080.31;;;1.49
66113;BMP280;52893;52.870;5.822;2022-12-16T02:05:18;101084.31;;;1.46
66113;BMP280;52893;52.870;5.822;2022-12-16T02:07:57;101092.06;;;1.43
66113;BMP280;52893;52.870;5.822;2022-12-16T02:10:32;101082.66;;;1.40
66113;BMP280;52893;52.870;5.822;2022-12-16T02:13:08;101080.78;;;1.41
66113;BMP280;52893;52.870;5.822;2022-12-16T02:15:42;101081.00;;;1.39
66113;BMP280;52893;52.870;5.822;2022-12-16T02:18:17;101067.25;;;1.31
66113;BMP280;52893;52.870;5.822;2022-12-16T02:21:07;101077.44;;;1.34
66113;BMP280;52893;52.870;5.822;2022-12-16T02:24:00;101080.69;;;1.31
66113;BMP280;52893;52.870;5.822;2022-12-16T02:26:47;101082.81;;;1.29
66113;BMP280;52893;52.870;5.822;2022-12-16T02:29:36;101072.50;;;1.21
66113;BMP280;52893;52.870;5.822;2022-12-16T02:32:19;101081.66;;;1.25
66113;BMP280;52893;52.870;5.822;2022-12-16T02:34:53;101090.88;;;1.29
66113;BMP280;52893;52.870;5.822;2022-12-16T02:37:32;101085.78;;;1.32
66113;BMP280;52893;52.870;5.822;2022-12-16T02:40:06;101095.78;;;1.37
66113;BMP280;52893;52.870;5.822;2022-12-16T02:42:41;101098.50;;;1.42
66113;BMP280;52893;52.870;5.822;2022-12-16T02:45:10;101102.34;;;1.46
66113;BMP280;52893;52.870;5.822;2022-12-16T02:47:39;101101.84;;;1.49
66113;BMP280;52893;52.870;5.822;2022-12-16T02:50:16;101108.31;;;1.53
66113;BMP280;52893;52.870;5.822;2022-12-16T02:52:44;101096.72;;;1.47
66113;BMP280;52893;52.870;5.822;2022-12-16T02:55:12;101104.31;;;1.56
66113;BMP280;52893;52.870;5.822;2022-12-16T02:57:52;101028.16;;;1.01
66113;BMP280;52893;52.870;5.822;2022-12-16T03:00:24;101112.63;;;1.54
66113;BMP280;52893;52.870;5.822;2022-12-16T03:02:56;101112.16;;;1.57
66113;BMP280;52893;52.870;5.822;2022-12-16T03:05:29;101115.66;;;1.58
66113;BMP280;52893;52.870;5.822;2022-12-16T03:08:06;101112.41;;;1.56
66113;BMP280;52893;52.870;5.822;2022-12-16T03:10:37;101120.47;;;1.56
66113;BMP280;52893;52.870;5.822;2022-12-16T03:13:06;101109.94;;;1.54
66113;BMP280;52893;52.870;5.822;2022-12-16T03:15:35;101112.06;;;1.52
66113;BMP280;52893;52.870;5.822;2022-12-16T03:18:06;101110.44;;;1.51
66113;BMP280;52893;52.870;5.822;2022-12-16T03:20:39;101111.78;;;1.48
66113;BMP280;52893;52.870;5.822;2022-12-16T03:23:10;101108.78;;;1.45
66113;BMP280;52893;52.870;5.822;2022-12-16T03:25:42;101117.34;;;1.42
66113;BMP280;52893;52.870;5.822;2022-12-16T03:28:19;101122.72;;;1.42
66113;BMP280;52893;52.870;5.822;2022-12-16T03:30:56;101135.63;;;1.40
66113;BMP280;52893;52.870;5.822;2022-12-16T03:33:28;101126.13;;;1.32
66113;BMP280;52893;52.870;5.822;2022-12-16T03:35:59;101139.84;;;1.36
66113;BMP280;52893;52.870;5.822;2022-12-16T03:38:29;101134.72;;;1.34
66113;BMP280;52893;52.870;5.822;2022-12-16T03:40:58;101146.06;;;1.36
66113;BMP280;52893;52.870;5.822;2022-12-16T03:43:27;101147.44;;;1.39
66113;BMP280;52893;52.870;5.822;2022-12-16T03:45:59;101152.56;;;1.40
66113;BMP280;52893;52.870;5.822;2022-12-16T03:48:29;101151.25;;;1.43
66113;BMP280;52893;52.870;5.822;2022-12-16T03:50:57;101144.78;;;1.44
66113;BMP280;52893;52.870;5.822;2022-12-16T03:53:24;101150.19;;;1.44
66113;BMP280;52893;52.870;5.822;2022-12-16T03:55:52;101151.25;;;1.43
66113;BMP280;52893;52.870;5.822;2022-12-16T03:58:19;101152.28;;;1.42
66113;BMP280;52893;52.870;5.822;2022-12-16T04:00:47;101157.94;;;1.40
66113;BMP280;52893;52.870;5.822;2022-12-16T04:03:14;101160.88;;;1.39
66113;BMP280;52893;52.870;5.822;2022-12-16T04:05:44;101167.31;;;1.38
66113;BMP280;52893;52.870;5.822;2022-12-16T04:08:11;101172.69;;;1.38
66113;BMP280;52893;52.870;5.822;2022-12-16T04:10:38;101167.56;;;1.36
66113;BMP280;52893;52.870;5.822;2022-12-16T04:13:23;101174.25;;;1.34
66113;BMP280;52893;52.870;5.822;2022-12-16T04:16:13;101175.28;;;1.28
66113;BMP280;52893;52.870;5.822;2022-12-16T04:18:59;101181.09;;;1.20
66113;BMP280;52893;52.870;5.822;2022-12-16T04:21:45;101172.94;;;1.14
66113;BMP280;52893;52.870;5.822;2022-12-16T04:24:30;101170.09;;;1.04
66113;BMP280;52893;52.870;5.822;2022-12-16T04:26:58;101169.28;;;1.04
66113;BMP280;52893;52.870;5.822;2022-12-16T04:29:54;101136.38;;;0.75
66113;BMP280;52893;52.870;5.822;2022-12-16T04:32:39;101176.72;;;0.97
66113;BMP280;52893;52.870;5.822;2022-12-16T04:35:24;101167.28;;;0.94
66113;BMP280;52893;52.870;5.822;2022-12-16T04:38:11;101176.72;;;0.97
66113;BMP280;52893;52.870;5.822;2022-12-16T04:40:55;101161.50;;;0.86
66113;BMP280;52893;52.870;5.822;2022-12-16T04:43:40;101181.50;;;0.95
66113;BMP280;52893;52.870;5.822;2022-12-16T04:46:25;101185.00;;;0.95
66113;BMP280;52893;52.870;5.822;2022-12-16T04:49:10;101188.53;;;0.96
66113;BMP280;52893;52.870;5.822;2022-12-16T04:51:55;101186.09;;;0.94
66113;BMP280;52893;52.870;5.822;2022-12-16T04:54:41;101198.78;;;0.99
66113;BMP280;52893;52.870;5.822;2022-12-16T04:57:26;101182.03;;;0.92
66113;BMP280;52893;52.870;5.822;2022-12-16T05:00:12;101193.34;;;0.94
66113;BMP280;52893;52.870;5.822;2022-12-16T05:03:02;101190.81;;;0.87
66113;BMP280;52893;52.870;5.822;2022-12-16T05:05:47;101188.88;;;0.83
66113;BMP280;52893;52.870;5.822;2022-12-16T05:08:31;101190.88;;;0.75
66113;BMP280;52893;52.870;5.822;2022-12-16T05:11:18;101186.66;;;0.80
66113;BMP280;52893;52.870;5.822;2022-12-16T05:14:03;101196.59;;;0.79
66113;BMP280;52893;52.870;5.822;2022-12-16T05:16:53;101202.22;;;0.77
66113;BMP280;52893;52.870;5.822;2022-12-16T05:19:45;101205.47;;;0.80
66113;BMP280;52893;52.870;5.822;2022-12-16T05:22:30;101203.59;;;0.80
66113;BMP280;52893;52.870;5.822;2022-12-16T05:25:15;101212.81;;;0.84
66113;BMP280;52893;52.870;5.822;2022-12-16T05:28:02;101209.16;;;0.90
66113;BMP280;52893;52.870;5.822;2022-12-16T05:30:47;101205.47;;;0.96
66113;BMP280;52893;52.870;5.822;2022-12-16T05:33:32;101190.09;;;0.92
66113;BMP280;52893;52.870;5.822;2022-12-16T05:36:16;101216.13;;;1.08
66113;BMP280;52893;52.870;5.822;2022-12-16T05:39:02;101212.97;;;1.11
66113;BMP280;52893;52.870;5.822;2022-12-16T05:41:47;101197.50;;;1.01
66113;BMP280;52893;52.870;5.822;2022-12-16T05:44:33;101209.53;;;1.16
66113;BMP280;52893;52.870;5.822;2022-12-16T05:47:19;101217.53;;;1.10
66113;BMP280;52893;52.870;5.822;2022-12-16T05:50:05;101219.84;;;1.24
66113;BMP280;52893;52.870;5.822;2022-12-16T05:52:51;101200.09;;;1.13
66113;BMP280;52893;52.870;5.822;2022-12-16T05:55:35;101228.03;;;1.34
66113;BMP280;52893;52.870;5.822;2022-12-16T05:58:21;101231.88;;;1.38
66113;BMP280;52893;52.870;5.822;2022-12-16T06:01:07;101234.88;;;1.41
66113;BMP280;52893;52.870;5.822;2022-12-16T06:03:52;101226.53;;;1.43
66113;BMP280;52893;52.870;5.822;2022-12-16T06:06:37;101237.31;;;1.43
66113;BMP280;52893;52.870;5.822;2022-12-16T06:09:22;101238.13;;;1.43
66113;BMP280;52893;52.870;5.822;2022-12-16T06:12:06;101233.56;;;1.44
66113;BMP280;52893;52.870;5.822;2022-12-16T06:14:51;101240.31;;;1.46
66113;BMP280;52893;52.870;5.822;2022-12-16T06:17:40;101240.31;;;1.46
66113;BMP280;52893;52.870;5.822;2022-12-16T06:20:25;101247.56;;;1.46
66113;BMP280;52893;52.870;5.822;2022-12-16T06:23:10;101259.97;;;1.47
66113;BMP280;52893;52.870;5.822;2022-12-16T06:25:55;101250.50;;;1.44
66113;BMP280;52893;52.870;5.822;2022-12-16T06:28:40;101255.31;;;1.42
66113;BMP280;52893;52.870;5.822;2022-12-16T06:31:25;101271.44;;;1.42
66113;BMP280;52893;52.870;5.822;2022-12-16T06:34:11;101274.56;;;1.34
66113;BMP280;52893;52.870;5.822;2022-12-16T06:36:56;101262.63;;;1.25
66113;BMP280;52893;52.870;5.822;2022-12-16T06:39:41;101285.28;;;1.29
66113;BMP280;52893;52.870;5.822;2022-12-16T06:42:26;101282.34;;;1.31
66113;BMP280;52893;52.870;5.822;2022-12-16T06:45:11;101292.56;;;1.34
66113;BMP280;52893;52.870;5.822;2022-12-16T06:47:56;101286.94;;;1.35
66113;BMP280;52893;52.870;5.822;2022-12-16T06:50:42;101293.72;;;1.38
66113;BMP280;52893;52.870;5.822;2022-12-16T06:53:27;101289.16;;;1.38
66113;BMP280;52893;52.870;5.822;2022-12-16T06:56:11;101298.19;;;1.49
66113;BMP280;52893;52.870;5.822;2022-12-16T06:58:56;101284.09;;;1.42
66113;BMP280;52893;52.870;5.822;2022-12-16T07:01:41;101309.50;;;1.51
66113;BMP280;52893;52.870;5.822;2022-12-16T07:04:26;101297.97;;;1.50
66113;BMP280;52893;52.870;5.822;2022-12-16T07:07:12;101300.22;;;1.42
66113;BMP280;52893;52.870;5.822;2022-12-16T07:09:57;101306.75;;;1.46
66113;BMP280;52893;52.870;5.822;2022-12-16T07:12:42;101315.88;;;1.45
66113;BMP280;52893;52.870;5.822;2022-12-16T07:15:27;101320.44;;;1.44
66113;BMP280;52893;52.870;5.822;2022-12-16T07:18:11;101323.72;;;1.46
66113;BMP280;52893;52.870;5.822;2022-12-16T07:20:56;101325.09;;;1.49
66113;BMP280;52893;52.870;5.822;2022-12-16T07:23:42;101330.78;;;1.52
66113;BMP280;52893;52.870;5.822;2022-12-16T07:26:27;101334.38;;;1.58
66113;BMP280;52893;52.870;5.822;2022-12-16T07:29:23;101324.59;;;1.52
66113;BMP280;52893;52.870;5.822;2022-12-16T07:32:08;101324.03;;;1.50
66113;BMP280;52893;52.870;5.822;2022-12-16T07:34:53;101346.84;;;1.64
66113;BMP280;52893;52.870;5.822;2022-12-16T07:37:38;101253.75;;;1.08
66113;BMP280;52893;52.870;5.822;2022-12-16T07:40:24;101353.91;;;1.70
66113;BMP280;52893;52.870;5.822;2022-12-16T07:43:09;101357.75;;;1.74
66113;BMP280;52893;52.870;5.822;2022-12-16T07:45:54;101362.66;;;1.77
66113;BMP280;52893;52.870;5.822;2022-12-16T07:48:39;101372.38;;;1.78
66113;BMP280;52893;52.870;5.822;2022-12-16T07:51:24;101366.22;;;1.83
66113;BMP280;52893;52.870;5.822;2022-12-16T07:54:08;101373.53;;;1.87
66113;BMP280;52893;52.870;5.822;2022-12-16T07:56:55;101374.66;;;1.91
66113;BMP280;52893;52.870;5.822;2022-12-16T07:59:39;101385.75;;;1.95
66113;BMP280;52893;52.870;5.822;2022-12-16T08:02:27;101374.06;;;1.84
66113;BMP280;52893;52.870;5.822;2022-12-16T08:05:12;101395.53;;;2.01
66113;BMP280;52893;52.870;5.822;2022-12-16T08:07:59;101397.50;;;2.06
66113;BMP280;52893;52.870;5.822;2022-12-16T08:10:44;101404.50;;;2.07
66113;BMP280;52893;52.870;5.822;2022-12-16T08:13:30;101411.00;;;2.11
66113;BMP280;52893;52.870;5.822;2022-12-16T08:16:15;101410.78;;;2.12
66113;BMP280;52893;52.870;5.822;2022-12-16T08:19:00;101415.91;;;2.14
66113;BMP280;52893;52.870;5.822;2022-12-16T08:21:45;101418.91;;;2.17
66113;BMP280;52893;52.870;5.822;2022-12-16T08:24:30;101416.72;;;2.14
66113;BMP280;52893;52.870;5.822;2022-12-16T08:27:15;101432.22;;;2.24
66113;BMP280;52893;52.870;5.822;2022-12-16T08:30:02;101441.94;;;2.30
66113;BMP280;52893;52.870;5.822;2022-12-16T08:32:47;101410.66;;;2.24
66113;BMP280;52893;52.870;5.822;2022-12-16T08:35:32;101428.06;;;2.38
66113;BMP280;52893;52.870;5.822;2022-12-16T08:38:25;101430.25;;;2.41
66113;BMP280;52893;52.870;5.822;2022-12-16T08:41:10;101436.78;;;2.45
66113;BMP280;52893;52.870;5.822;2022-12-16T08:43:55;101441.66;;;2.48
66113;BMP280;52893;52.870;5.822;2022-12-16T08:46:43;101443.06;;;2.51
66113;BMP280;52893;52.870;5.822;2022-12-16T08:49:27;101456.84;;;2.54
66113;BMP280;52893;52.870;5.822;2022-12-16T08:52:12;101454.44;;;2.58
66113;BMP280;52893;52.870;5.822;2022-12-16T08:54:57;101456.91;;;2.59
66113;BMP280;52893;52.870;5.822;2022-12-16T08:57:42;101463.94;;;2.60
66113;BMP280;52893;52.870;5.822;2022-12-16T09:00:27;101465.31;;;2.63
66113;BMP280;52893;52.870;5.822;2022-12-16T09:03:13;101467.69;;;2.64
66113;BMP280;52893;52.870;5.822;2022-12-16T09:05:58;101438.41;;;2.46
66113;BMP280;52893;52.870;5.822;2022-12-16T09:08:43;101477.41;;;2.65
66113;BMP280;52893;52.870;5.822;2022-12-16T09:11:28;101486.41;;;2.71
66113;BMP280;52893;52.870;5.822;2022-12-16T09:14:12;101492.09;;;2.75
66113;BMP280;52893;52.870;5.822;2022-12-16T09:16:58;101486.69;;;2.75
66113;BMP280;52893;52.870;5.822;2022-12-16T09:19:44;101478.56;;;2.69
66113;BMP280;52893;52.870;5.822;2022-12-16T09:22:29;101468.50;;;2.60
66113;BMP280;52893;52.870;5.822;2022-12-16T09:25:14;101502.72;;;2.81
66113;BMP280;52893;52.870;5.822;2022-12-16T09:27:58;101503.81;;;2.85
66113;BMP280;52893;52.870;5.822;2022-12-16T09:30:43;101504.34;;;2.82
66113;BMP280;52893;52.870;5.822;2022-12-16T09:33:28;101516.03;;;2.93
66113;BMP280;52893;52.870;5.822;2022-12-16T09:36:15;101512.81;;;2.91
66113;BMP280;52893;52.870;5.822;2022-12-16T09:38:59;101524.75;;;3.00
66113;BMP280;52893;52.870;5.822;2022-12-16T09:41:55;101523.69;;;3.01
66113;BMP280;52893;52.870;5.822;2022-12-16T09:44:51;101526.13;;;3.02
66113;BMP280;52893;52.870;5.822;2022-12-16T09:47:48;101531.50;;;3.02
66113;BMP280;52893;52.870;5.822;2022-12-16T09:50:37;101537.72;;;3.03
66113;BMP280;52893;52.870;5.822;2022-12-16T09:53:26;101543.13;;;3.03
66113;BMP280;52893;52.870;5.822;2022-12-16T09:56:16;101546.38;;;3.05
66113;BMP280;52893;52.870;5.822;2022-12-16T09:59:05;101539.06;;;3.00
66113;BMP280;52893;52.870;5.822;2022-12-16T10:01:51;101549.16;;;3.10
66113;BMP280;52893;52.870;5.822;2022-12-16T10:04:37;101552.41;;;3.12
66113;BMP280;52893;52.870;5.822;2022-12-16T10:07:22;101550.28;;;3.14
66113;BMP280;52893;52.870;5.822;2022-12-16T10:10:24;101553.53;;;3.16
66113;BMP280;52893;52.870;5.822;2022-12-16T10:13:16;101555.75;;;3.19
66113;BMP280;52893;52.870;5.822;2022-12-16T10:16:09;101557.91;;;3.22
66113;BMP280;52893;52.870;5.822;2022-12-16T10:19:03;101556.56;;;3.25
66113;BMP280;52893;52.870;5.822;2022-12-16T10:21:57;101546.59;;;3.20
66113;BMP280;52893;52.870;5.822;2022-12-16T10:24:51;101530.81;;;3.12
66113;BMP280;52893;52.870;5.822;2022-12-16T10:27:43;101554.75;;;3.30
66113;BMP280;52893;52.870;5.822;2022-12-16T10:30:28;101551.56;;;3.33
66113;BMP280;52893;52.870;5.822;2022-12-16T10:33:14;101555.88;;;3.34
66113;BMP280;52893;52.870;5.822;2022-12-16T10:35:59;101558.34;;;3.36
66113;BMP280;52893;52.870;5.822;2022-12-16T10:38:48;101562.66;;;3.37
66113;BMP280;52893;52.870;5.822;2022-12-16T10:41:37;101562.41;;;3.38
66113;BMP280;52893;52.870;5.822;2022-12-16T10:44:26;101567.28;;;3.41
66113;BMP280;52893;52.870;5.822;2022-12-16T10:47:12;101573.00;;;3.45
66113;BMP280;52893;52.870;5.822;2022-12-16T10:49:58;101571.94;;;3.46
66113;BMP280;52893;52.870;5.822;2022-12-16T10:52:44;101548.34;;;3.36
66113;BMP280;52893;52.870;5.822;2022-12-16T10:55:48;101565.47;;;3.47
66113;BMP280;52893;52.870;5.822;2022-12-16T10:58:42;101567.38;;;3.46
66113;BMP280;52893;52.870;5.822;2022-12-16T11:01:30;101557.38;;;3.47
66113;BMP280;52893;52.870;5.822;2022-12-16T11:04:32;101555.50;;;3.47
66113;BMP280;52893;52.870;5.822;2022-12-16T11:07:30;101560.34;;;3.45
66113;BMP280;52893;52.870;5.822;2022-12-16T11:10:40;101555.44;;;3.42
66113;BMP280;52893;52.870;5.822;2022-12-16T11:13:27;101557.06;;;3.43
66113;BMP280;52893;52.870;5.822;2022-12-16T11:16:15;101559.75;;;3.43
66113;BMP280;52893;52.870;5.822;2022-12-16T11:19:02;101562.72;;;3.42
66113;BMP280;52893;52.870;5.822;2022-12-16T11:21:47;101570.56;;;3.43
66113;BMP280;52893;52.870;5.822;2022-12-16T11:24:32;101572.44;;;3.43
66113;BMP280;52893;52.870;5.822;2022-12-16T11:27:22;101547.75;;;3.29
66113;BMP280;52893;52.870;5.822;2022-12-16T11:30:16;101571.06;;;3.40
66113;BMP280;52893;52.870;5.822;2022-12-16T11:33:09;101569.44;;;3.39
66113;BMP280;52893;52.870;5.822;2022-12-16T11:36:09;101548.72;;;3.23
66113;BMP280;52893;52.870;5.822;2022-12-16T11:38:57;101573.72;;;3.35
66113;BMP280;52893;52.870;5.822;2022-12-16T11:41:45;101569.38;;;3.34
66113;BMP280;52893;52.870;5.822;2022-12-16T11:44:34;101560.66;;;3.27
66113;BMP280;52893;52.870;5.822;2022-12-16T11:47:30;101575.84;;;3.33
66113;BMP280;52893;52.870;5.822;2022-12-16T11:50:19;101575.53;;;3.30
66113;BMP280;52893;52.870;5.822;2022-12-16T11:53:17;101491.59;;;2.78
66113;BMP280;52893;52.870;5.822;2022-12-16T11:56:11;101580.66;;;3.31
66113;BMP280;52893;52.870;5.822;2022-12-16T11:59:01;101580.94;;;3.30
66113;BMP280;52893;52.870;5.822;2022-12-16T12:01:51;101580.13;;;3.29
66113;BMP280;52893;52.870;5.822;2022-12-16T12:04:39;101588.47;;;3.28
66113;BMP280;52893;52.870;5.822;2022-12-16T12:07:29;101573.16;;;3.12
66113;BMP280;52893;52.870;5.822;2022-12-16T12:10:44;101597.13;;;3.30
66113;BMP280;52893;52.870;5.822;2022-12-16T12:13:45;101599.06;;;3.34
66113;BMP280;52893;52.870;5.822;2022-12-16T12:16:41;101611.47;;;3.35
66113;BMP280;52893;52.870;5.822;2022-12-16T12:19:34;101612.56;;;3.34
66113;BMP280;52893;52.870;5.822;2022-12-16T12:22:30;101608.16;;;3.28
66113;BMP280;52893;52.870;5.822;2022-12-16T12:25:21;101610.53;;;3.25
66113;BMP280;52893;52.870;5.822;2022-12-16T12:28:21;101618.88;;;3.23
66113;BMP280;52893;52.870;5.822;2022-12-16T12:31:14;101612.16;;;3.21
66113;BMP280;52893;52.870;5.822;2022-12-16T12:34:06;101606.69;;;3.16
66113;BMP280;52893;52.870;5.822;2022-12-16T12:36:58;101612.41;;;3.24
66113;BMP280;52893;52.870;5.822;2022-12-16T12:39:52;101615.69;;;3.26
66113;BMP280;52893;52.870;5.822;2022-12-16T12:42:44;101598.91;;;3.19
66113;BMP280;52893;52.870;5.822;2022-12-16T12:45:46;101622.41;;;3.24
66113;BMP280;52893;52.870;5.822;2022-12-16T12:48:36;101624.28;;;3.23
66113;BMP280;52893;52.870;5.822;2022-12-16T12:51:29;101607.69;;;3.10
66113;BMP280;52893;52.870;5.822;2022-12-16T12:54:33;101622.16;;;3.25
66113;BMP280;52893;52.870;5.822;2022-12-16T12:57:22;101620.31;;;3.31
66113;BMP280;52893;52.870;5.822;2022-12-16T13:00:14;101600.47;;;3.15
66113;BMP280;52893;52.870;5.822;2022-12-16T13:03:06;101630.94;;;3.37
66113;BMP280;52893;52.870;5.822;2022-12-16T13:05:56;101638.78;;;3.39
66113;BMP280;52893;52.870;5.822;2022-12-16T13:08:53;101632.25;;;3.35
66113;BMP280;52893;52.870;5.822;2022-12-16T13:11:38;101645.06;;;3.44
66113;BMP280;52893;52.870;5.822;2022-12-16T13:14:52;101647.50;;;3.46
66113;BMP280;52893;52.870;5.822;2022-12-16T13:21:42;101654.78;;;3.45
66113;BMP280;52893;52.870;5.822;2022-12-16T13:24:34;101655.28;;;3.42
66113;BMP280;52893;52.870;5.822;2022-12-16T13:27:21;101661.19;;;3.39
66113;BMP280;52893;52.870;5.822;2022-12-16T13:30:19;101668.47;;;3.39
66113;BMP280;52893;52.870;5.822;2022-12-16T13:33:06;101665.78;;;3.39
66113;BMP280;52893;52.870;5.822;2022-12-16T13:35:52;101666.91;;;3.43
66113;BMP280;52893;52.870;5.822;2022-12-16T13:38:44;101668.28;;;3.45
66113;BMP280;52893;52.870;5.822;2022-12-16T13:41:48;101666.66;;;3.49
66113;BMP280;52893;52.870;5.822;2022-12-16T13:44:58;101681.88;;;3.56
66113;BMP280;52893;52.870;5.822;2022-12-16T13:48:01;101675.34;;;3.52
66113;BMP280;52893;52.870;5.822;2022-12-16T13:50:49;101653.09;;;3.39
66113;BMP280;52893;52.870;5.822;2022-12-16T13:53:39;101676.97;;;3.53
66113;BMP280;52893;52.870;5.822;2022-12-16T13:56:32;101687.44;;;3.49
66113;BMP280;52893;52.870;5.822;2022-12-16T13:59:20;101672.47;;;3.36
66113;BMP280;52893;52.870;5.822;2022-12-16T14:02:20;101688.19;;;3.39
66113;BMP280;52893;52.870;5.822;2022-12-16T14:05:16;101693.00;;;3.37
66113;BMP280;52893;52.870;5.822;2022-12-16T14:08:02;101692.44;;;3.35
66113;BMP280;52893;52.870;5.822;2022-12-16T14:11:00;101703.22;;;3.35
66113;BMP280;52893;52.870;5.822;2022-12-16T14:13:50;101708.88;;;3.34
66113;BMP280;52893;52.870;5.822;2022-12-16T14:16:43;101674.34;;;3.14
66113;BMP280;52893;52.870;5.822;2022-12-16T14:19:34;101705.97;;;3.40
66113;BMP280;52893;52.870;5.822;2022-12-16T14:22:32;101705.97;;;3.40
66113;BMP280;52893;52.870;5.822;2022-12-16T14:25:21;101712.53;;;3.44
66113;BMP280;52893;52.870;5.822;2022-12-16T14:28:24;101717.44;;;3.47
66113;BMP280;52893;52.870;5.822;2022-12-16T14:31:14;101725.78;;;3.46
66113;BMP280;52893;52.870;5.822;2022-12-16T14:34:01;101725.44;;;3.42
66113;BMP280;52893;52.870;5.822;2022-12-16T14:36:46;101737.25;;;3.36
66113;BMP280;52893;52.870;5.822;2022-12-16T14:39:37;101735.63;;;3.35
66113;BMP280;52893;52.870;5.822;2022-12-16T14:42:24;101736.69;;;3.34
66113;BMP280;52893;52.870;5.822;2022-12-16T14:45:29;101741.75;;;3.31
66113;BMP280;52893;52.870;5.822;2022-12-16T14:48:21;101725.59;;;3.14
66113;BMP280;52893;52.870;5.822;2022-12-16T14:51:15;101753.78;;;3.23
66113;BMP280;52893;52.870;5.822;2022-12-16T14:54:12;101753.50;;;3.20
66113;BMP280;52893;52.870;5.822;2022-12-16T14:56:58;101753.16;;;3.16
66113;BMP280;52893;52.870;5.822;2022-12-16T14:59:44;101768.72;;;3.09
66113;BMP280;52893;52.870;5.822;2022-12-16T15:02:38;101762.09;;;3.00
66113;BMP280;52893;52.870;5.822;2022-12-16T15:05:30;101765.75;;;2.94
66113;BMP280;52893;52.870;5.822;2022-12-16T15:08:17;101771.09;;;2.89
66113;BMP280;52893;52.870;5.822;2022-12-16T15:11:04;101776.91;;;2.81
66113;BMP280;52893;52.870;5.822;2022-12-16T15:13:53;101774.09;;;2.76
66113;BMP280;52893;52.870;5.822;2022-12-16T15:16:38;101772.97;;;2.72
66113;BMP280;52893;52.870;5.822;2022-12-16T15:19:25;101768.53;;;2.65
66113;BMP280;52893;52.870;5.822;2022-12-16T15:22:12;101774.44;;;2.62
66113;BMP280;52893;52.870;5.822;2022-12-16T15:24:58;101708.59;;;2.25
66113;BMP280;52893;52.870;5.822;2022-12-16T15:27:52;101775.41;;;2.56
66113;BMP280;52893;52.870;5.822;2022-12-16T15:30:38;101779.16;;;2.55
66113;BMP280;52893;52.870;5.822;2022-12-16T15:33:25;101781.19;;;2.48
66113;BMP280;52893;52.870;5.822;2022-12-16T15:36:21;101776.28;;;2.45
66113;BMP280;52893;52.870;5.822;2022-12-16T15:39:27;101779.22;;;2.44
66113;BMP280;52893;52.870;5.822;2022-12-16T15:42:18;101790.25;;;2.42
66113;BMP280;52893;52.870;5.822;2022-12-16T15:45:16;101787.78;;;2.41
66113;BMP280;52893;52.870;5.822;2022-12-16T15:48:10;101793.41;;;2.39